»·PEaware :: OH-CTP KSBA-KBUR

OH-CTP :: KSBA-KBUR

FLIGHT INFORMATION

Flight Status: Arrived
Operator: Privately registered:
Finland
More flights under this callsign
Pilot: Anonymous 19881 (19881)
Aircraft: CESSNA 172 SKYHAWK
(C172)
More flights by this aircraft type
Origin: KSBA Santa Barbara Mun
United States
Destination: KBUR Bob Hope-Burbank
United States
More flights between these airports :: More routes between these airports
Route:
File this flight plan on PilotEdge
Remarks: CAT-08 rating
Altitude:
(Current/Filed)
1,500ft
Speed:
(Current/Filed)
80kts
Departed: 29-Sep-18 03:52 PM
Arrived: 29-Sep-18 04:43 PM
Distance/Time
Traveled:
74nm/0:51
Distance/Time
To Go:
Arrived

Flight Plot

Page will automatically refresh every two minutes.


Map Options




Map Legend


Flown Route
Filed Route
Departure Airport
Arrival Airport
Navaid (VOR, NDB)
Fix

Horizontal Profiles

Position Reports

Time Latitude Longitude Heading Altitude Ground
Speed
29-Sep-18 15:35 34.432569 -119.835085 71 17ft 0kts
29-Sep-18 15:36 34.432569 -119.835085 71 17ft 0kts
29-Sep-18 15:37 34.432569 -119.835085 71 17ft 0kts
29-Sep-18 15:38 34.432569 -119.835085 71 17ft 0kts
29-Sep-18 15:39 34.432569 -119.835085 71 17ft 0kts
29-Sep-18 15:40 34.432569 -119.835085 71 17ft 0kts
29-Sep-18 15:41 34.432569 -119.835085 71 17ft 0kts
29-Sep-18 15:42 34.432569 -119.835085 71 17ft 0kts
29-Sep-18 15:43 34.432569 -119.835085 71 17ft 0kts
29-Sep-18 15:44 34.432569 -119.835085 71 17ft 0kts
29-Sep-18 15:45 34.432569 -119.835085 71 17ft 0kts
29-Sep-18 15:46 34.432419 -119.835241 227 17ft 0kts
29-Sep-18 15:47 34.432244 -119.835381 209 17ft 7kts
29-Sep-18 15:48 34.431338 -119.837664 249 17ft 5kts
29-Sep-18 15:49 34.430737 -119.839682 247 17ft 0kts
29-Sep-18 15:50 34.430737 -119.839682 247 17ft 0kts
29-Sep-18 15:51 34.430737 -119.839682 247 17ft 0kts
29-Sep-18 15:52 34.430737 -119.839682 247 17ft 0kts
29-Sep-18 15:53 34.430737 -119.839682 247 17ft 0kts
29-Sep-18 15:54 34.422387 -119.837688 162 160ft 84kts
29-Sep-18 15:55 34.393456 -119.828479 167 538ft 108kts
29-Sep-18 15:56 34.366124 -119.820950 163 932ft 97kts
29-Sep-18 15:57 34.340687 -119.811901 156 1330ft 94kts
29-Sep-18 15:58 34.333662 -119.781770 86 1427ft 112kts
29-Sep-18 15:59 34.334641 -119.746473 87 1426ft 100kts
29-Sep-18 16:00 34.335550 -119.712848 87 1426ft 99kts
29-Sep-18 16:01 34.336452 -119.679688 87 1426ft 98kts
29-Sep-18 16:02 34.337362 -119.646410 87 1426ft 98kts
29-Sep-18 16:03 34.338274 -119.613138 87 1426ft 98kts
29-Sep-18 16:04 34.339175 -119.580410 87 1426ft 98kts
29-Sep-18 16:05 34.340095 -119.547134 87 1426ft 98kts
29-Sep-18 16:06 34.341014 -119.514007 87 1433ft 98kts
29-Sep-18 16:07 34.341931 -119.482097 87 1852ft 90kts
29-Sep-18 16:08 34.342787 -119.453354 87 2343ft 82kts
29-Sep-18 16:09 34.343615 -119.426547 87 2837ft 77kts
29-Sep-18 16:10 34.344415 -119.401760 86 3330ft 70kts
29-Sep-18 16:11 34.345266 -119.375462 87 3530ft 97kts
29-Sep-18 16:12 34.346216 -119.341907 88 3526ft 98kts
29-Sep-18 16:13 34.347839 -119.309878 90 3527ft 94kts
29-Sep-18 16:14 34.345809 -119.278202 96 3527ft 94kts
29-Sep-18 16:15 34.342022 -119.247022 99 3527ft 94kts
29-Sep-18 16:16 34.337867 -119.217566 99 3878ft 81kts
29-Sep-18 16:17 34.334222 -119.192699 99 4349ft 73kts
29-Sep-18 16:18 34.329600 -119.162600 100 4667ft 96kts
29-Sep-18 16:19 34.324505 -119.130319 100 4967ft 98kts
29-Sep-18 16:20 34.319389 -119.097825 100 5266ft 98kts
29-Sep-18 16:21 34.314265 -119.065268 100 5524ft 102kts
29-Sep-18 16:22 34.308739 -119.030431 100 5526ft 103kts
29-Sep-18 16:23 34.303563 -118.997864 100 5527ft 97kts
29-Sep-18 16:24 34.299354 -118.971236 100 5527ft 96kts
29-Sep-18 16:25 34.293487 -118.934246 100 5527ft 96kts
29-Sep-18 16:26 34.288424 -118.902631 100 5527ft 95kts
29-Sep-18 16:27 34.283458 -118.871442 100 5527ft 95kts
29-Sep-18 16:28 34.278461 -118.840037 100 5545ft 94kts
29-Sep-18 16:29 34.274274 -118.813772 100 5545ft 95kts
29-Sep-18 16:30 34.268385 -118.776902 100 5545ft 95kts
29-Sep-18 16:31 34.264168 -118.750536 100 5545ft 95kts
29-Sep-18 16:32 34.258256 -118.713643 100 5545ft 95kts
29-Sep-18 16:33 34.254027 -118.687296 100 5545ft 95kts
29-Sep-18 16:34 34.248967 -118.655811 100 5545ft 95kts
29-Sep-18 16:35 34.243884 -118.624242 100 5545ft 95kts
29-Sep-18 16:36 34.238794 -118.592686 100 5545ft 95kts
29-Sep-18 16:37 34.233753 -118.561497 100 5545ft 95kts
29-Sep-18 16:38 34.237416 -118.531329 67 5545ft 95kts
29-Sep-18 16:39 34.237831 -118.502223 129 5536ft 93kts
29-Sep-18 16:40 34.224347 -118.481487 117 4895ft 81kts
29-Sep-18 16:41 34.215008 -118.452814 110 3706ft 96kts
29-Sep-18 16:42 34.205607 -118.422809 106 2605ft 95kts
29-Sep-18 16:43 34.199494 -118.392410 100 1439ft 85kts
29-Sep-18 16:44 34.197877 -118.368169 91 781ft 48kts
29-Sep-18 16:45 34.197127 -118.364764 184 781ft 0kts
29-Sep-18 16:46 34.196891 -118.365519 264 781ft 13kts
29-Sep-18 16:47 34.196352 -118.366999 7 781ft 0kts
29-Sep-18 16:48 34.196352 -118.366999 7 781ft 0kts
29-Sep-18 16:49 34.196352 -118.366999 7 781ft 0kts

Navigation Log

Ident Type
1. KSBA Airport
2. KBUR Airport